Time;durP1;ratioP1;P1;durP2;ratioP2;P2;SDS_P1;SDS_P2;PMS_P1;PMS_P2;Temp;Humidity;BMP_temperature;BMP_pressure;BME280_temperature;BME280_humidity;BME280_pressure;Samples;Min_cycle;Max_cycle;Signal;HPM_P1;HPM_P2
2022/12/05 00:01:17;;;;;;;22.25;12.77;;;;;;;4.75;76.46;96380.72;5072570;28;20083;-81
2022/12/05 00:03:45;;;;;;;22.20;12.40;;;;;;;4.75;76.86;96385.06;5072166;28;20055;-80
2022/12/05 00:06:14;;;;;;;23.90;13.02;;;;;;;4.73;76.69;96376.66;5072764;28;20056;-80
2022/12/05 00:08:41;;;;;;;22.27;12.15;;;;;;;4.72;76.63;96380.19;5071562;28;20056;-81
2022/12/05 00:11:14;;;;;;;20.95;12.18;;;;;;;4.72;76.88;96406.03;5071820;28;20072;-80
2022/12/05 00:13:44;;;;;;;22.40;12.07;;;;;;;4.73;76.46;96412.81;5072664;28;20546;-81
2022/12/05 00:16:15;;;;;;;22.60;13.48;;;;;;;4.77;76.35;96410.75;5071853;28;20055;-81
2022/12/05 00:18:43;;;;;;;21.45;12.55;;;;;;;4.75;76.04;96416.88;5069830;28;20064;-81
2022/12/05 00:21:14;;;;;;;22.20;13.35;;;;;;;4.75;76.72;96426.41;5167762;22;20048;-79
2022/12/05 00:23:41;;;;;;;21.65;12.52;;;;;;;4.77;77.15;96423.66;5099991;28;20055;-79
2022/12/05 00:26:10;;;;;;;23.63;13.60;;;;;;;4.77;76.67;96421.91;5099353;28;20233;-79
2022/12/05 00:28:37;;;;;;;25.20;14.10;;;;;;;4.78;76.89;96433.84;5099004;28;20086;-79
2022/12/05 00:31:07;;;;;;;22.20;13.40;;;;;;;4.79;76.65;96438.09;5098872;28;20048;-80
2022/12/05 00:33:36;;;;;;;22.63;13.90;;;;;;;4.80;77.00;96438.88;5099954;28;20494;-80
2022/12/05 00:36:06;;;;;;;22.52;13.30;;;;;;;4.81;76.52;96451.66;5099824;28;20407;-79
2022/12/05 00:38:34;;;;;;;24.98;14.40;;;;;;;4.84;76.71;96448.78;5100416;28;20047;-79
2022/12/05 00:41:03;;;;;;;22.98;13.05;;;;;;;4.85;76.03;96434.88;5098943;28;20044;-80
2022/12/05 00:43:30;;;;;;;21.45;12.93;;;;;;;4.83;76.83;96431.66;5097620;28;20134;-80
2022/12/05 00:46:01;;;;;;;20.50;11.77;;;;;;;4.85;75.93;96436.66;5098052;28;20052;-79
2022/12/05 00:48:29;;;;;;;17.73;11.88;;;;;;;4.84;75.92;96441.00;5097428;28;20498;-79
2022/12/05 00:51:02;;;;;;;18.13;10.52;;;;;;;4.85;75.45;96447.78;5099492;28;20044;-79
2022/12/05 00:53:30;;;;;;;20.88;11.93;;;;;;;4.83;75.27;96449.75;5099999;28;20058;-79
2022/12/05 00:56:02;;;;;;;24.95;11.98;;;;;;;4.79;75.09;96443.25;5099463;28;20048;-80
2022/12/05 00:58:30;;;;;;;17.63;10.53;;;;;;;4.79;75.89;96443.25;5099576;28;20047;-80
2022/12/05 01:00:58;;;;;;;20.55;11.98;;;;;;;4.78;75.55;96436.44;5099476;28;20277;-80
2022/12/05 01:03:25;;;;;;;19.17;11.98;;;;;;;4.76;76.29;96446.13;5100045;28;20047;-80
2022/12/05 01:05:53;;;;;;;17.42;11.55;;;;;;;4.74;75.87;96454.03;5099116;28;20052;-80
2022/12/05 01:08:22;;;;;;;18.05;10.60;;;;;;;4.72;75.21;96468.03;5099663;28;20051;-79
2022/12/05 01:10:53;;;;;;;14.68;9.50;;;;;;;4.71;75.49;96466.44;5099489;28;20048;-80
2022/12/05 01:13:22;;;;;;;17.17;10.55;;;;;;;4.69;74.81;96469.16;5097841;28;20123;-79
2022/12/05 01:15:49;;;;;;;18.35;11.23;;;;;;;4.67;74.38;96465.09;5098569;28;20512;-79
2022/12/05 01:18:17;;;;;;;18.65;10.70;;;;;;;4.65;75.19;96477.34;5099420;28;20052;-80
2022/12/05 01:20:46;;;;;;;16.40;10.25;;;;;;;4.67;75.28;96493.53;5098945;28;20052;-80
2022/12/05 01:23:14;;;;;;;21.60;12.10;;;;;;;4.68;74.60;96488.22;5099142;28;20054;-80
2022/12/05 01:25:45;;;;;;;18.20;11.32;;;;;;;4.71;75.22;96481.94;5099537;28;20055;-79
2022/12/05 01:28:13;;;;;;;18.05;11.55;;;;;;;4.74;75.20;96491.97;5098787;28;20047;-79
2022/12/05 01:30:47;;;;;;;20.02;12.25;;;;;;;4.76;75.24;96500.38;5099608;28;20059;-79
2022/12/05 01:33:15;;;;;;;18.70;12.27;;;;;;;4.74;75.69;96512.63;5100470;28;20048;-79
2022/12/05 01:35:43;;;;;;;22.25;13.32;;;;;;;4.73;75.46;96516.19;5099282;28;20043;-79
2022/12/05 01:38:12;;;;;;;21.50;12.93;;;;;;;4.72;75.43;96519.72;5099105;28;20048;-80
2022/12/05 01:40:41;;;;;;;21.55;12.80;;;;;;;4.72;74.73;96520.56;5099241;28;20498;-79
2022/12/05 01:43:15;;;;;;;19.90;12.02;;;;;;;4.73;74.18;96526.53;5099584;28;20218;-80
2022/12/05 01:45:45;;;;;;;21.02;12.75;;;;;;;4.71;74.22;96528.44;5100347;28;20131;-79
2022/12/05 01:48:18;;;;;;;20.23;13.00;;;;;;;4.70;74.18;96534.56;5099130;28;20085;-79
2022/12/05 01:50:47;;;;;;;18.77;11.73;;;;;;;4.66;74.33;96535.84;5098653;28;20421;-79
2022/12/05 01:53:16;;;;;;;20.70;12.55;;;;;;;4.62;74.09;96545.63;5097617;28;20059;-79
2022/12/05 01:55:45;;;;;;;21.15;12.13;;;;;;;4.60;74.01;96542.38;5098800;28;20047;-79
2022/12/05 01:58:15;;;;;;;17.08;10.60;;;;;;;4.61;74.42;96535.44;5099522;28;20516;-79
2022/12/05 02:00:43;;;;;;;18.50;11.73;;;;;;;4.57;74.59;96542.69;5099249;28;20054;-80
2022/12/05 02:03:17;;;;;;;17.75;11.48;;;;;;;4.51;74.55;96549.22;5099137;28;20101;-79
2022/12/05 02:05:48;;;;;;;17.17;10.95;;;;;;;4.50;74.60;96564.88;5103531;28;20056;-79
2022/12/05 02:08:16;;;;;;;21.83;12.82;;;;;;;4.50;75.29;96563.13;5103120;28;20062;-79
2022/12/05 02:10:46;;;;;;;18.40;11.18;;;;;;;4.47;74.96;96558.22;5102392;28;20048;-80
2022/12/05 02:13:49;;;;;;;21.92;12.05;;;;;;;4.47;74.93;96552.25;5103382;28;20048;-79
2022/12/05 02:16:27;;;;;;;19.23;11.85;;;;;;;4.46;74.52;96555.78;5102695;28;20047;-79
2022/12/05 02:19:12;;;;;;;18.17;11.82;;;;;;;4.49;75.04;96545.97;5102713;28;20447;-80
2022/12/05 02:22:00;;;;;;;20.80;12.10;;;;;;;4.50;74.74;96536.44;5102635;28;20048;-79
2022/12/05 02:25:03;;;;;;;17.08;10.55;;;;;;;4.49;74.54;96537.44;5101485;28;20051;-79
2022/12/05 02:27:57;;;;;;;16.88;10.13;;;;;;;4.49;75.08;96538.22;5104745;28;20044;-79
2022/12/05 02:30:29;;;;;;;17.27;10.45;;;;;;;4.45;74.09;96539.47;5103431;28;20051;-80
2022/12/05 02:33:07;;;;;;;18.27;10.27;;;;;;;4.42;73.80;96529.44;5102026;28;20059;-80
2022/12/05 02:35:46;;;;;;;20.35;12.23;;;;;;;4.41;74.21;96527.00;5101705;28;20059;-80
2022/12/05 02:38:24;;;;;;;16.55;10.80;;;;;;;4.42;75.02;96526.88;5103338;28;20055;-80
2022/12/05 02:41:02;;;;;;;19.10;10.98;;;;;;;4.44;74.12;96527.53;5102605;28;20052;-79
2022/12/05 02:43:37;;;;;;;18.80;11.50;;;;;;;4.42;73.68;96550.09;5105792;28;20056;-80
2022/12/05 02:46:09;;;;;;;19.00;12.23;;;;;;;4.37;74.72;96569.56;5103345;28;20055;-79
2022/12/05 02:48:38;;;;;;;17.58;10.82;;;;;;;4.35;74.47;96580.03;5101949;28;20048;-80
2022/12/05 02:51:09;;;;;;;20.35;11.60;;;;;;;4.33;74.63;96587.94;5102187;28;20391;-79
2022/12/05 02:53:38;;;;;;;17.90;10.77;;;;;;;4.35;75.15;96580.03;5102979;28;20052;-79
2022/12/05 02:56:07;;;;;;;17.17;10.68;;;;;;;4.39;75.16;96583.94;5103628;28;20340;-79
2022/12/05 02:58:41;;;;;;;14.80;9.95;;;;;;;4.43;74.92;96603.38;5101395;28;20490;-79
2022/12/05 03:01:11;;;;;;;17.52;10.90;;;;;;;4.45;74.50;96611.78;5101713;28;20044;-79
2022/12/05 03:03:38;;;;;;;15.77;9.38;;;;;;;4.48;74.72;96601.19;5103263;28;20048;-79
2022/12/05 03:06:13;;;;;;;15.38;9.68;;;;;;;4.49;74.67;96596.84;5103510;28;20052;-79
2022/12/05 03:08:45;;;;;;;16.95;10.90;;;;;;;4.49;74.54;96582.13;5102268;28;20059;-79
2022/12/05 03:11:14;;;;;;;14.52;9.80;;;;;;;4.45;74.64;96591.13;5102654;28;20417;-79
2022/12/05 03:13:45;;;;;;;12.90;9.30;;;;;;;4.44;75.05;96588.69;5103424;28;20048;-79
2022/12/05 03:16:19;;;;;;;13.85;9.25;;;;;;;4.41;73.28;96587.19;5102512;28;20427;-79
2022/12/05 03:18:51;;;;;;;14.70;10.07;;;;;;;4.38;73.49;96579.75;5102521;28;20055;-80
2022/12/05 03:21:25;;;;;;;13.48;9.48;;;;;;;4.36;73.20;96563.59;5101844;28;20433;-80
2022/12/05 03:23:58;;;;;;;14.68;10.00;;;;;;;4.35;73.46;96556.78;5100116;28;20497;-79
2022/12/05 03:26:37;;;;;;;13.07;8.77;;;;;;;4.29;73.23;96560.78;5101869;28;20512;-79
2022/12/05 03:29:23;;;;;;;13.52;8.25;;;;;;;4.27;73.89;96567.84;5102223;28;20052;-79
2022/12/05 03:32:00;;;;;;;10.52;8.00;;;;;;;4.30;74.52;96577.88;5102510;28;20048;-79
2022/12/05 03:34:42;;;;;;;12.57;8.57;;;;;;;4.33;74.10;96581.97;5100793;28;20051;-79
2022/12/05 03:37:14;;;;;;;12.35;8.27;;;;;;;4.32;72.95;96581.13;5101655;28;20047;-79
2022/12/05 03:39:47;;;;;;;9.57;6.93;;;;;;;4.29;73.72;96581.44;5100881;28;20074;-79
2022/12/05 03:42:22;;;;;;;11.60;7.78;;;;;;;4.30;73.96;96577.88;5101562;28;20044;-79
2022/12/05 03:44:55;;;;;;;12.15;8.05;;;;;;;4.32;74.39;96580.31;5100001;28;20052;-80
2022/12/05 03:47:30;;;;;;;12.00;7.85;;;;;;;4.32;73.42;96582.91;5100889;28;20066;-80
2022/12/05 03:50:03;;;;;;;12.45;8.75;;;;;;;4.32;73.83;96585.47;5101503;28;20505;-79
2022/12/05 03:52:33;;;;;;;;;;;;;;;4.34;73.85;96586.16;5101356;28;20054;-80
2022/12/05 03:55:23;;;;;;;10.18;7.00;;;;;;;4.30;73.68;96584.81;5100814;28;20367;-80
2022/12/05 03:57:57;;;;;;;10.55;7.65;;;;;;;4.29;73.65;96596.13;5101094;28;20052;-79
2022/12/05 04:00:25;;;;;;;10.20;6.88;;;;;;;4.26;73.22;96593.78;5101728;28;20054;-80
2022/12/05 04:02:57;;;;;;;13.38;6.97;;;;;;;4.24;73.17;96593.13;5100170;28;20056;-80
2022/12/05 04:05:31;;;;;;;10.43;6.93;;;;;;;4.24;73.18;96598.28;5101436;28;20047;-79
2022/12/05 04:08:03;;;;;;;11.07;7.65;;;;;;;4.24;73.52;96606.88;5099434;28;20055;-79
2022/12/05 04:10:47;;;;;;;12.30;7.30;;;;;;;4.26;73.76;96607.53;5100156;28;20055;-79
2022/12/05 04:13:18;;;;;;;14.88;7.95;;;;;;;4.27;74.05;96603.19;5101367;28;20052;-79
2022/12/05 04:18:42;;;;;;;11.70;7.55;;;;;;;4.31;74.47;96594.19;5102268;28;20049;-79
2022/12/05 04:26:48;;;;;;;11.85;6.97;;;;;;;4.29;73.42;96603.84;5101791;28;20056;-80
2022/12/05 04:29:25;;;;;;;9.63;6.72;;;;;;;4.29;73.07;96599.50;5101327;28;20056;-79
2022/12/05 04:31:58;;;;;;;10.05;7.22;;;;;;;4.28;72.84;96600.44;5101741;28;20079;-79
2022/12/05 04:34:29;;;;;;;10.82;7.45;;;;;;;4.26;73.49;96598.97;5101669;28;20055;-80
2022/12/05 04:37:03;;;;;;;10.25;7.00;;;;;;;4.26;73.35;96606.72;5101444;28;20051;-79
2022/12/05 04:39:37;;;;;;;10.82;7.20;;;;;;;4.28;73.40;96609.97;5101217;28;20048;-79
2022/12/05 04:42:07;;;;;;;12.65;7.65;;;;;;;4.30;73.39;96613.22;5102161;28;20052;-79
2022/12/05 04:44:40;;;;;;;11.18;7.65;;;;;;;4.30;73.59;96616.59;5101839;28;20048;-79
2022/12/05 04:47:10;;;;;;;;;;;;;;;4.33;73.53;96618.13;5101088;28;20394;-80
2022/12/05 04:49:41;;;;;;;11.50;7.85;;;;;;;4.28;73.03;96620.28;5101778;28;19920;-79
2022/12/05 04:52:11;;;;;;;12.27;7.63;;;;;;;4.25;73.24;96618.81;5101785;28;20044;-79
2022/12/05 04:54:43;;;;;;;11.13;7.10;;;;;;;4.25;72.85;96613.66;5101023;28;20039;-79
2022/12/05 04:57:17;;;;;;;12.63;8.10;;;;;;;4.24;72.41;96613.78;5102721;28;20078;-79
2022/12/05 04:59:45;;;;;;;11.23;6.75;;;;;;;4.19;72.46;96606.47;5099951;28;20047;-80
2022/12/05 05:02:18;;;;;;;10.40;6.50;;;;;;;4.15;72.23;96605.13;5100338;28;20059;-80
2022/12/05 05:04:50;;;;;;;10.02;7.60;;;;;;;4.12;73.07;96610.56;5101885;28;20044;-79
2022/12/05 05:07:19;;;;;;;;;;;;;;;4.15;73.14;96624.97;5086188;28;20049;-80
2022/12/05 05:09:46;;;;;;;10.82;7.05;;;;;;;4.12;73.70;96621.69;5091638;28;19927;-80
2022/12/05 05:12:14;;;;;;;11.20;7.22;;;;;;;4.11;73.70;96625.25;5101423;28;20059;-80
2022/12/05 05:14:45;;;;;;;13.00;7.35;;;;;;;4.11;73.86;96620.09;5100057;28;20051;-79
2022/12/05 05:17:13;;;;;;;12.02;7.00;;;;;;;4.13;73.59;96623.34;5099842;28;20051;-80
2022/12/05 05:19:41;;;;;;;12.27;7.55;;;;;;;4.14;73.45;96613.81;5097799;28;20051;-79
2022/12/05 05:22:09;;;;;;;12.25;7.28;;;;;;;4.13;73.52;96615.59;5095622;28;20056;-80
2022/12/05 05:24:37;;;;;;;13.05;8.10;;;;;;;4.15;73.84;96619.78;5094199;28;20059;-78
2022/12/05 05:27:04;;;;;;;12.13;7.25;;;;;;;4.15;73.55;96627.53;5076458;28;21513;-79
2022/12/05 05:29:32;;;;;;;10.45;7.32;;;;;;;4.15;73.56;96630.13;5092018;28;20059;-78
2022/12/05 05:32:00;;;;;;;13.48;8.93;;;;;;;4.15;73.21;96630.13;5085046;28;20075;-79
2022/12/05 05:34:27;;;;;;;12.82;8.13;;;;;;;4.10;73.27;96628.78;5092645;28;20062;-78
2022/12/05 05:36:55;;;;;;;12.45;7.57;;;;;;;4.07;73.36;96633.41;5091905;28;20043;-78
2022/12/05 05:39:25;;;;;;;13.90;8.70;;;;;;;4.07;73.20;96628.25;5092291;28;20048;-78
2022/12/05 05:41:53;;;;;;;14.18;8.23;;;;;;;4.05;73.10;96636.13;5091965;28;20051;-79
2022/12/05 05:44:20;;;;;;;13.63;8.57;;;;;;;4.02;72.86;96636.41;5092346;28;20048;-78
2022/12/05 05:46:48;;;;;;;17.00;9.70;;;;;;;4.01;73.44;96650.28;5093862;28;20044;-79
2022/12/05 05:49:15;;;;;;;14.70;8.98;;;;;;;4.01;73.61;96645.09;5092311;28;20048;-79
2022/12/05 05:51:43;;;;;;;18.13;9.45;;;;;;;4.01;73.16;96652.03;5091822;28;20498;-79
2022/12/05 05:54:11;;;;;;;15.65;9.05;;;;;;;3.99;72.86;96644.44;5093103;28;20051;-78
2022/12/05 05:56:39;;;;;;;13.48;8.60;;;;;;;3.98;72.52;96645.41;5093632;28;20510;-79
2022/12/05 05:59:07;;;;;;;14.63;9.13;;;;;;;3.97;72.85;96648.91;5092473;28;20058;-79
2022/12/05 06:01:35;;;;;;;13.07;8.05;;;;;;;3.99;72.95;96652.16;5093593;28;20048;-80
2022/12/05 06:04:02;;;;;;;14.48;8.48;;;;;;;4.00;72.66;96646.06;5092772;28;20056;-78
2022/12/05 06:06:30;;;;;;;15.90;8.63;;;;;;;4.01;72.86;96647.69;5092229;28;20078;-79
2022/12/05 06:08:57;;;;;;;30.88;17.27;;;;;;;4.00;72.69;96643.50;5078760;28;20134;-80
2022/12/05 06:11:27;;;;;;;15.43;9.60;;;;;;;4.00;72.80;96651.25;5071950;28;20041;-79
2022/12/05 06:13:57;;;;;;;14.63;8.80;;;;;;;4.01;72.79;96654.63;5080377;28;20051;-77
2022/12/05 06:16:25;;;;;;;14.15;8.85;;;;;;;4.01;73.06;96655.44;5092022;28;20055;-76
2022/12/05 06:18:53;;;;;;;14.02;8.57;;;;;;;4.02;73.11;96661.41;5107787;28;20048;-78
2022/12/05 06:21:21;;;;;;;17.02;9.35;;;;;;;4.00;73.47;96658.97;5117620;22;20055;-79
2022/12/05 06:23:50;;;;;;;14.32;8.48;;;;;;;4.00;73.22;96660.72;5090947;28;20052;-80
2022/12/05 06:26:20;;;;;;;15.25;9.82;;;;;;;3.98;72.84;96658.31;5092176;28;20051;-79
2022/12/05 06:28:48;;;;;;;13.48;8.18;;;;;;;3.97;73.32;96661.81;5091764;28;20494;-80
2022/12/05 06:31:19;;;;;;;16.00;9.23;;;;;;;3.98;72.94;96663.47;5091953;28;20520;-80
2022/12/05 06:33:47;;;;;;;15.82;9.82;;;;;;;3.97;73.27;96664.41;5092180;28;20077;-79
2022/12/05 06:36:16;;;;;;;15.60;9.48;;;;;;;3.96;73.30;96662.78;5091683;28;20059;-80
2022/12/05 06:38:44;;;;;;;13.57;8.85;;;;;;;3.95;73.58;96660.34;5091778;28;20489;-80
2022/12/05 06:41:15;;;;;;;13.38;8.73;;;;;;;3.93;73.45;96673.38;5091998;28;20048;-78
2022/12/05 06:43:43;;;;;;;16.17;8.63;;;;;;;3.92;73.35;96674.34;5091958;28;20044;-80
2022/12/05 06:46:13;;;;;;;14.00;9.20;;;;;;;3.95;73.97;96686.16;5102051;28;20055;-80
2022/12/05 06:48:42;;;;;;;13.63;8.23;;;;;;;3.95;73.61;96686.16;5112476;28;20044;-80
2022/12/05 06:51:10;;;;;;;14.07;9.00;;;;;;;3.96;73.54;96682.59;5109629;28;20072;-80
2022/12/05 06:53:38;;;;;;;15.20;9.23;;;;;;;3.96;73.40;96677.44;5097064;28;20059;-80
2022/12/05 06:56:11;;;;;;;16.90;9.07;;;;;;;3.94;73.07;96685.34;5097388;28;20059;-80
2022/12/05 06:58:38;;;;;;;14.38;8.63;;;;;;;3.91;73.22;96686.44;5096282;28;20102;-80
2022/12/05 07:03:58;;;;;;;15.25;9.43;;;;;;;3.93;73.30;96678.53;5095951;28;20048;-80
2022/12/05 07:06:26;;;;;;;12.95;8.73;;;;;;;3.95;73.57;96686.94;5095140;28;20047;-80
2022/12/05 07:08:53;;;;;;;16.30;9.88;;;;;;;3.94;73.46;96698.25;5094958;28;20133;-80
2022/12/05 07:11:21;;;;;;;15.35;9.82;;;;;;;3.94;73.68;96700.81;5095323;28;20048;-79
2022/12/05 07:13:48;;;;;;;14.27;7.97;;;;;;;3.92;73.36;96708.69;5094973;28;20059;-79
2022/12/05 07:16:16;;;;;;;15.27;9.05;;;;;;;3.91;73.21;96701.09;5095310;28;20055;-80
2022/12/05 07:18:44;;;;;;;17.13;9.60;;;;;;;3.90;73.20;96709.78;5094816;28;20051;-79
2022/12/05 07:21:15;;;;;;;14.75;9.48;;;;;;;3.90;73.62;96717.53;5094622;28;20044;-80
2022/12/05 07:23:45;;;;;;;13.10;8.35;;;;;;;3.92;73.80;96719.03;5095018;28;20050;-79
2022/12/05 07:26:16;;;;;;;15.65;9.65;;;;;;;3.93;73.59;96712.09;5094497;28;20052;-79
2022/12/05 07:28:43;;;;;;;14.80;9.65;;;;;;;3.94;73.60;96723.25;5094751;28;20052;-79
2022/12/05 07:31:13;;;;;;;16.50;9.75;;;;;;;3.92;73.83;96723.38;5094774;28;20051;-80
2022/12/05 07:33:41;;;;;;;14.63;8.90;;;;;;;3.91;73.77;96716.56;5094620;28;20443;-80
2022/12/05 07:36:11;;;;;;;15.05;9.10;;;;;;;3.90;73.73;96722.69;5094373;28;20044;-80
2022/12/05 07:38:40;;;;;;;13.93;9.20;;;;;;;3.88;73.90;96740.88;5094055;28;20044;-79
2022/12/05 07:41:09;;;;;;;14.77;9.02;;;;;;;3.90;74.17;96751.06;5094387;28;20079;-79
2022/12/05 07:43:40;;;;;;;13.77;8.82;;;;;;;3.90;74.02;96745.91;5094538;28;20052;-79
2022/12/05 07:46:10;;;;;;;15.90;9.45;;;;;;;3.92;74.19;96754.34;5094506;28;20044;-80
2022/12/05 07:48:38;;;;;;;17.33;10.02;;;;;;;3.92;74.09;96751.75;5094106;28;20053;-79
2022/12/05 07:51:07;;;;;;;14.60;9.30;;;;;;;3.93;74.34;96753.38;5094312;28;20054;-80
2022/12/05 07:53:35;;;;;;;14.20;9.55;;;;;;;3.95;74.51;96751.47;5094041;28;20528;-80
2022/12/05 07:56:06;;;;;;;17.13;10.27;;;;;;;3.98;74.75;96758.97;5094013;28;20044;-80
2022/12/05 07:58:34;;;;;;;17.58;10.38;;;;;;;4.01;74.60;96755.28;5093901;28;20048;-80
2022/12/05 08:01:06;;;;;;;20.20;11.63;;;;;;;4.02;74.46;96746.56;5093978;28;20051;-80
2022/12/05 08:03:34;;;;;;;16.73;9.97;;;;;;;4.03;74.46;96751.63;5093517;28;20052;-80
2022/12/05 08:06:03;;;;;;;16.92;10.82;;;;;;;4.03;74.42;96741.28;5093796;28;20048;-80
2022/12/05 08:08:30;;;;;;;18.02;11.27;;;;;;;4.03;74.15;96746.44;5093716;28;20044;-79
2022/12/05 08:11:04;;;;;;;16.23;10.38;;;;;;;4.04;74.45;96742.09;5093950;28;20497;-80
2022/12/05 08:13:32;;;;;;;20.85;12.30;;;;;;;4.04;74.08;96742.91;5093827;28;20422;-79
2022/12/05 08:16:02;;;;;;;17.02;10.25;;;;;;;4.02;73.85;96749.16;5093565;28;20048;-80
2022/12/05 08:18:30;;;;;;;17.67;9.90;;;;;;;3.98;73.73;96743.47;5093328;28;20058;-80
2022/12/05 08:21:02;;;;;;;16.17;9.50;;;;;;;3.93;74.00;96750.78;5093540;28;20052;-80
2022/12/05 08:23:30;;;;;;;15.38;9.73;;;;;;;3.92;74.33;96744.03;5093823;28;20048;-80
2022/12/05 08:26:01;;;;;;;17.98;10.10;;;;;;;3.90;74.06;96745.91;5093505;28;20055;-80
2022/12/05 08:28:31;;;;;;;19.00;10.82;;;;;;;3.90;74.27;96751.06;5093296;28;20052;-79
2022/12/05 08:31:04;;;;;;;20.13;11.93;;;;;;;3.92;74.67;96754.34;5093228;28;20047;-79
2022/12/05 08:33:31;;;;;;;;;;;;;;;3.95;74.66;96758.41;5094053;28;20048;-80
2022/12/05 08:36:01;;;;;;;17.13;10.32;;;;;;;3.89;74.00;96759.75;5093244;28;19924;-80
2022/12/05 08:38:28;;;;;;;19.15;11.70;;;;;;;3.89;74.27;96763.19;5093079;28;20048;-79
2022/12/05 08:40:56;;;;;;;13.55;9.18;;;;;;;3.89;74.56;96772.66;5093133;28;20421;-79
2022/12/05 08:43:23;;;;;;;18.65;11.65;;;;;;;3.90;74.84;96776.88;5093101;28;20052;-80
2022/12/05 08:45:53;;;;;;;19.27;11.50;;;;;;;3.93;75.24;96786.94;5093195;28;20060;-79
2022/12/05 08:48:22;;;;;;;17.45;10.93;;;;;;;3.96;74.75;96786.66;5093005;28;20052;-79
2022/12/05 08:50:56;;;;;;;15.23;9.15;;;;;;;3.98;74.98;96789.94;5093072;28;20415;-80
2022/12/05 08:53:23;;;;;;;16.73;10.18;;;;;;;4.02;75.02;96791.28;5092976;28;20058;-80
2022/12/05 08:55:51;;;;;;;12.10;8.18;;;;;;;4.06;75.02;96786.66;5092966;28;20051;-80
2022/12/05 08:58:19;;;;;;;14.63;9.90;;;;;;;4.10;74.51;96788.84;5094135;28;20050;-80
2022/12/05 09:00:46;;;;;;;13.90;8.85;;;;;;;4.12;74.69;96784.34;5093667;28;20055;-80
2022/12/05 09:03:15;;;;;;;14.55;9.15;;;;;;;4.15;74.48;96787.59;5093963;28;20056;-80
2022/12/05 09:05:42;;;;;;;14.82;9.13;;;;;;;4.16;74.22;96787.47;5093176;28;20055;-80
2022/12/05 09:08:10;;;;;;;14.52;9.32;;;;;;;4.20;74.21;96788.00;5094040;28;20048;-81
2022/12/05 09:10:38;;;;;;;15.88;9.57;;;;;;;4.21;74.34;96793.03;5094791;28;20059;-79
2022/12/05 09:13:06;;;;;;;20.52;9.73;;;;;;;4.25;74.38;96811.66;5092839;28;20067;-80
2022/12/05 09:15:33;;;;;;;14.90;10.00;;;;;;;4.27;74.89;96800.25;5092502;28;20055;-80
2022/12/05 09:18:01;;;;;;;15.55;9.98;;;;;;;4.34;74.59;96803.09;5092307;28;20096;-80
2022/12/05 09:20:30;;;;;;;14.10;8.95;;;;;;;4.40;74.28;96804.31;5092688;28;20517;-79
2022/12/05 09:22:57;;;;;;;14.27;8.90;;;;;;;4.43;73.98;96806.63;5092509;28;20047;-79
2022/12/05 09:25:25;;;;;;;19.63;11.57;;;;;;;4.45;74.08;96808.09;5093037;28;20052;-80
2022/12/05 09:27:53;;;;;;;14.15;9.93;;;;;;;4.49;74.66;96808.66;5092994;28;20493;-80
2022/12/05 09:30:21;;;;;;;15.32;10.25;;;;;;;4.52;74.45;96814.34;5092970;28;20054;-80
2022/12/05 09:32:48;;;;;;;17.52;10.30;;;;;;;4.56;74.45;96821.81;5092722;28;20048;-80
2022/12/05 09:35:16;;;;;;;23.73;9.52;;;;;;;4.58;74.03;96830.25;5092515;28;20047;-80
2022/12/05 09:37:45;;;;;;;13.25;9.00;;;;;;;4.59;74.30;96842.22;5092429;28;20440;-80
2022/12/05 09:40:16;;;;;;;12.82;8.77;;;;;;;4.61;74.58;96843.69;5092836;28;20059;-80
2022/12/05 09:42:56;;;;;;;14.73;9.40;;;;;;;4.64;74.37;96838.25;5092874;28;20044;-80
2022/12/05 09:45:28;;;;;;;16.70;9.05;;;;;;;4.67;73.92;96847.50;5092403;28;20154;-80
2022/12/05 09:48:00;;;;;;;13.82;9.95;;;;;;;4.71;74.37;96843.69;5092180;28;20093;-80
2022/12/05 09:50:30;;;;;;;14.27;10.13;;;;;;;4.74;73.87;96843.41;5092279;28;20052;-80
2022/12/05 09:53:11;;;;;;;24.38;14.38;;;;;;;4.78;73.97;96838.78;5092505;28;20063;-79
2022/12/05 09:55:45;;;;;;;21.50;12.02;;;;;;;4.79;73.59;96836.06;5092551;28;20052;-79
2022/12/05 09:58:21;;;;;;;19.20;12.70;;;;;;;4.78;73.99;96834.41;5092031;28;20041;-80
2022/12/05 10:00:52;;;;;;;16.20;11.00;;;;;;;4.80;73.95;96832.50;5092324;28;20048;-80
2022/12/05 10:03:27;;;;;;;17.02;10.55;;;;;;;4.81;73.56;96831.56;5092271;28;20048;-80
2022/12/05 10:06:04;;;;;;;14.60;9.60;;;;;;;4.81;73.81;96834.16;5092829;28;20044;-79
2022/12/05 10:08:41;;;;;;;15.63;10.43;;;;;;;4.85;74.59;96838.06;5091943;28;20048;-80
2022/12/05 10:11:14;;;;;;;13.93;9.80;;;;;;;4.88;74.65;96840.38;5095300;28;20514;-80
2022/12/05 10:13:53;;;;;;;13.70;8.95;;;;;;;4.90;74.21;96832.50;5110065;28;20059;-80
2022/12/05 10:16:29;;;;;;;13.75;9.57;;;;;;;4.92;73.94;96831.41;5096049;28;20052;-79
2022/12/05 10:19:02;;;;;;;14.35;9.45;;;;;;;4.95;73.91;96815.59;5092091;28;20052;-80
2022/12/05 10:21:33;;;;;;;14.20;9.60;;;;;;;4.99;73.45;96823.09;5092378;28;20059;-80
2022/12/05 10:24:04;;;;;;;12.63;8.48;;;;;;;5.02;73.32;96825.38;5092303;28;20071;-79
2022/12/05 10:26:36;;;;;;;14.45;8.00;;;;;;;5.04;72.95;96813.13;5095101;28;20055;-80
2022/12/05 10:29:21;;;;;;;11.13;7.72;;;;;;;5.06;72.71;96806.06;5095880;28;20044;-80
2022/12/05 10:31:50;;;;;;;12.75;7.78;;;;;;;5.07;72.80;96807.66;5095794;28;20055;-80
2022/12/05 10:34:27;;;;;;;11.40;8.00;;;;;;;5.07;72.85;96805.06;5096114;28;20044;-79
2022/12/05 10:37:00;;;;;;;11.27;7.50;;;;;;;5.09;72.63;96790.25;5095807;28;20071;-79
2022/12/05 10:39:29;;;;;;;;;;;;;;;5.14;72.91;96794.03;5096296;28;20044;-80
2022/12/05 10:41:57;;;;;;;13.02;8.48;;;;;;;5.14;72.41;96794.03;5095564;28;20412;-80
2022/12/05 10:44:24;;;;;;;12.52;8.13;;;;;;;5.15;72.55;96794.84;5095451;28;20420;-80
2022/12/05 10:46:52;;;;;;;11.10;7.03;;;;;;;5.15;72.60;96795.66;5095945;28;20051;-80
2022/12/05 10:49:20;;;;;;;11.95;7.00;;;;;;;5.18;72.74;96786.78;5095312;28;20048;-80
2022/12/05 10:51:48;;;;;;;9.25;7.10;;;;;;;5.23;73.24;96789.78;5095879;28;20398;-80
2022/12/05 10:54:20;;;;;;;11.55;7.20;;;;;;;5.27;73.45;96803.22;5095741;28;20062;-80
2022/12/05 10:56:51;;;;;;;12.07;7.28;;;;;;;5.30;72.94;96797.78;5095513;28;20084;-80
2022/12/05 10:59:20;;;;;;;12.43;7.68;;;;;;;5.33;72.83;96793.13;5095416;28;20044;-80
2022/12/05 11:01:52;;;;;;;14.32;8.50;;;;;;;5.38;72.69;96792.72;5095485;28;20474;-80
2022/12/05 11:04:24;;;;;;;13.07;8.07;;;;;;;5.41;72.72;96794.19;5095468;28;20497;-80
2022/12/05 11:06:56;;;;;;;12.15;8.30;;;;;;;5.44;72.53;96796.47;5095564;28;20417;-80
2022/12/05 11:09:26;;;;;;;12.33;9.10;;;;;;;5.46;73.05;96805.72;5094928;28;20493;-80
2022/12/05 11:12:02;;;;;;;16.70;9.80;;;;;;;5.47;72.53;96806.56;5095440;28;20051;-80
2022/12/05 11:14:32;;;;;;;13.68;9.57;;;;;;;5.48;72.60;96801.22;5095169;28;20059;-79
2022/12/05 11:17:01;;;;;;;15.48;10.77;;;;;;;5.50;72.47;96803.66;5095158;28;20063;-80
2022/12/05 11:19:31;;;;;;;16.17;11.48;;;;;;;5.52;72.22;96799.16;5095193;28;20048;-80
2022/12/05 11:22:00;;;;;;;16.35;11.88;;;;;;;5.52;72.44;96796.56;5095426;28;20040;-80
2022/12/05 11:24:30;;;;;;;15.38;10.85;;;;;;;5.51;72.10;96793.19;5097847;28;20052;-80
2022/12/05 11:27:00;;;;;;;18.90;12.05;;;;;;;5.53;71.90;96793.00;5097865;28;20048;-80
2022/12/05 11:29:31;;;;;;;20.45;12.73;;;;;;;5.54;72.26;96799.81;5096207;28;20044;-80
2022/12/05 11:31:58;;;;;;;17.63;12.30;;;;;;;5.55;72.41;96791.09;5096534;28;20054;-80
2022/12/05 11:34:31;;;;;;;17.33;11.50;;;;;;;5.55;72.50;96791.09;5095540;28;20425;-80
2022/12/05 11:37:04;;;;;;;16.90;10.90;;;;;;;5.56;72.19;96792.75;5093749;28;20048;-80
2022/12/05 11:39:32;;;;;;;16.75;10.52;;;;;;;5.57;72.38;96791.75;5094614;28;20047;-80
2022/12/05 11:42:16;;;;;;;15.85;11.25;;;;;;;5.60;72.18;96799.25;5094721;28;20052;-80
2022/12/05 11:45:21;;;;;;;13.50;9.68;;;;;;;5.62;73.26;96799.94;5094565;28;20048;-80
2022/12/05 11:48:02;;;;;;;15.57;9.88;;;;;;;5.65;72.82;96806.56;5094943;28;20054;-80
2022/12/05 11:50:42;;;;;;;12.93;8.98;;;;;;;5.68;72.82;96811.44;5094836;28;20063;-80
2022/12/05 11:53:39;;;;;;;9.13;6.65;;;;;;;5.67;72.25;96810.66;5094407;28;20429;-80
2022/12/05 11:56:17;;;;;;;8.93;7.20;;;;;;;5.69;72.58;96803.56;5091635;28;20052;-80
2022/12/05 11:59:02;;;;;;;9.93;6.63;;;;;;;5.73;72.43;96810.06;5093768;28;20044;-80
2022/12/05 12:01:45;;;;;;;9.50;6.80;;;;;;;5.76;72.79;96804.59;5094076;28;20048;-80